Centerton, Ohio
Current Conditions -  °F | °C
As of 11:52 PM on Wednesday 22 Oct 2014 (Local Time) from KMFD Reporting Station
Overcast Overcast  
Wind Chill: 42°   Ceiling: 3200
Heat Index: 45°   Visibility: 10mi
Dew Point: 42°   Wind: 6mph
Humidity: 90%   Direction: 320°NW
Pressure: 30.24"   Gusts: NA
Location:  41.0768°N, 82.7214°W
Report Text: KMFD 230352Z 32005KT 10SM OVC032 07/06 A3024 RMK AO2 SLP246 T00720056
Loading
Personal Weather Stations






























Interactive Weather Map
Tropical Storm Tracking
New forecast layout! Learn more

10-Day Weather Forecast

Advertisements
Track Severe Weather on mobile